Time;durP1;ratioP1;P1;durP2;ratioP2;P2;SDS_P1;SDS_P2;PMS_P1;PMS_P2;Temp;Humidity;BMP_temperature;BMP_pressure;BME280_temperature;BME280_humidity;BME280_pressure;Samples;Min_cycle;Max_cycle;Signal;HPM_P1;HPM_P2
2022/03/22 00:00:19;;;;;;;;;;;;;;;;;;2056963;28;19914;-78
2022/03/22 00:01:21;;;;;;;;;;;;;;;;;;2068100;28;19913;-77
2022/03/22 00:02:23;;;;;;;;;;;;;;;;;;2065118;28;19918;-77
2022/03/22 00:03:25;;;;;;;;;;;;;;;;;;2056679;28;19922;-77
2022/03/22 00:04:25;;;;;;;;;;;;;;;;;;2048706;28;19966;-77
2022/03/22 00:05:25;;;;;;;;;;;;;;;;;;2056665;28;20331;-76
2022/03/22 00:06:26;;;;;;;;;;;;;;;;;;2056649;28;19918;-77
2022/03/22 00:07:27;;;;;;;;;;;;;;;;;;2056788;28;19914;-76
2022/03/22 00:08:37;;;;;;;;;;;;;;;;;;2065125;28;20025;-77
2022/03/22 00:09:37;;;;;;;;;;;;;;;;;;2056829;28;19914;-77
2022/03/22 00:10:38;;;;;;;;;;;;;;;;;;2056745;28;19933;-77
2022/03/22 00:11:38;;;;;;;;;;;;;;;;;;2056615;28;19954;-77
2022/03/22 00:12:38;;;;;;;;;;;;;;;;;;2056727;28;19957;-77
2022/03/22 00:13:43;;;;;;;;;;;;;;;;;;2065157;28;19988;-77
2022/03/22 00:14:43;;;;;;;;;;;;;;;;;;2065023;28;19917;-77
2022/03/22 00:15:44;;;;;;;;;;;;;;;;;;2065049;28;19972;-77
2022/03/22 00:16:44;;;;;;;;;;;;;;;;;;2065121;28;20009;-77
2022/03/22 00:17:45;;;;;;;;;;;;;;;;;;2065143;28;20033;-76
2022/03/22 00:18:47;;;;;;;;;;;;;;;;;;2065139;28;20004;-77
2022/03/22 00:19:47;;;;;;;;;;;;;;;;;;2065138;28;20381;-77
2022/03/22 00:20:49;;;;;;;;;;;;;;;;;;2065043;28;19924;-76
2022/03/22 00:21:50;;;;;;;;;;;;;;;;;;2065218;28;20381;-77
2022/03/22 00:22:51;;;;;;;;;;;;;;;;;;2065145;28;19953;-77
2022/03/22 00:23:51;;;;;;;;;;;;;;;;;;2065126;28;19917;-77
2022/03/22 00:24:52;;;;;;;;;;;;;;;;;;2065108;28;20351;-77
2022/03/22 00:25:52;;;;;;;;;;;;;;;;;;2065898;28;19957;-77
2022/03/22 00:26:52;;;;;;;;;;;;;;;;;;2066650;28;19914;-77
2022/03/22 00:27:57;;;;;;;;;;;;;;;;;;2058037;28;19922;-77
2022/03/22 00:28:59;;;;;;;;;;;;;;;;;;2058587;28;20355;-78
2022/03/22 00:30:00;;;;;;;;;;;;;;;;;;2066772;28;19914;-77
2022/03/22 00:31:01;;;;;;;;;;;;;;;;;;2066653;28;19945;-77
2022/03/22 00:32:08;;;;;;;;;;;;;;;;;;2066717;28;19929;-77
2022/03/22 00:33:09;;;;;;;;;;;;;;;;;;2058173;28;19914;-77
2022/03/22 00:34:13;;;;;;;;;;;;;;;;;;2058078;28;20004;-78
2022/03/22 00:35:14;;;;;;;;;;;;;;;;;;2065981;28;20429;-77
2022/03/22 00:36:14;;;;;;;;;;;;;;;;;;2057961;28;19914;-77
2022/03/22 00:37:15;;;;;;;;;;;;;;;;;;2057939;28;19914;-77
2022/03/22 00:38:20;;;;;;;;;;;;;;;;;;2050043;29;20021;-77
2022/03/22 00:39:20;;;;;;;;;;;;;;;;;;2060981;28;20025;-78
2022/03/22 00:40:21;;;;;;;;;;;;;;;;;;2066546;28;20152;-77
2022/03/22 00:41:21;;;;;;;;;;;;;;;;;;2057996;28;20008;-77
2022/03/22 00:42:22;;;;;;;;;;;;;;;;;;2057984;28;20331;-77
2022/03/22 00:43:23;;;;;;;;;;;;;;;;;;2066043;28;19921;-78
2022/03/22 00:44:23;;;;;;;;;;;;;;;;;;2066487;28;19914;-76
2022/03/22 00:45:28;;;;;;;;;;;;;;;;;;2066414;28;20406;-77
2022/03/22 00:46:28;;;;;;;;;;;;;;;;;;2057841;28;19914;-77
2022/03/22 00:47:28;;;;;;;;;;;;;;;;;;2057987;28;19921;-78
2022/03/22 00:48:28;;;;;;;;;;;;;;;;;;2066339;28;19925;-76
2022/03/22 00:49:30;;;;;;;;;;;;;;;;;;2066523;28;19914;-76
2022/03/22 00:50:33;;;;;;;;;;;;;;;;;;2066494;28;19996;-77
2022/03/22 00:51:35;;;;;;;;;;;;;;;;;;2066549;28;20003;-76
2022/03/22 00:52:38;;;;;;;;;;;;;;;;;;2066513;28;19921;-76
2022/03/22 00:53:39;;;;;;;;;;;;;;;;;;2066522;28;20283;-78
2022/03/22 00:54:41;;;;;;;;;;;;;;;;;;2066317;28;19925;-77
2022/03/22 00:55:43;;;;;;;;;;;;;;;;;;2066397;28;20062;-77
2022/03/22 00:56:43;;;;;;;;;;;;;;;;;;2066434;28;20161;-78
2022/03/22 00:57:44;;;;;;;;;;;;;;;;;;2066441;28;20367;-76
2022/03/22 00:58:44;;;;;;;;;;;;;;;;;;2057824;28;19925;-77
2022/03/22 01:00:04;;;;;;;;;;;;;;;;;;2058123;28;19914;-76
2022/03/22 01:01:05;;;;;;;;;;;;;;;;;;2066279;28;20402;-77
2022/03/22 01:02:05;;;;;;;;;;;;;;;;;;2066412;28;19980;-77
2022/03/22 01:03:06;;;;;;;;;;;;;;;;;;2066311;28;20009;-76
2022/03/22 01:04:07;;;;;;;;;;;;;;;;;;2066401;28;19925;-78
2022/03/22 01:05:11;;;;;;;;;;;;;;;;;;2066354;28;19928;-77
2022/03/22 01:06:11;;;;;;;;;;;;;;;;;;2057851;28;19915;-78
2022/03/22 01:07:11;;;;;;;;;;;;;;;;;;2049701;29;20025;-77
2022/03/22 01:08:15;;;;;;;;;;;;;;;;;;2049889;29;19945;-76
2022/03/22 01:09:15;;;;;;;;;;;;;;;;;;2058191;28;19924;-77
2022/03/22 01:10:24;;;;;;;;;;;;;;;;;;2066291;28;19914;-77
2022/03/22 01:11:24;;;;;;;;;;;;;;;;;;2066335;28;19967;-76
2022/03/22 01:12:24;;;;;;;;;;;;;;;;;;2065713;28;19922;-77
2022/03/22 01:13:27;;;;;;;;;;;;;;;;;;2065999;28;19914;-77
2022/03/22 01:14:28;;;;;;;;;;;;;;;;;;2066270;28;20020;-78
2022/03/22 01:15:33;;;;;;;;;;;;;;;;;;2066188;28;19918;-76
2022/03/22 01:16:33;;;;;;;;;;;;;;;;;;2066218;28;20287;-77
2022/03/22 01:17:34;;;;;;;;;;;;;;;;;;2066276;28;19949;-78
2022/03/22 01:18:34;;;;;;;;;;;;;;;;;;2066260;28;19925;-81
2022/03/22 01:19:37;;;;;;;;;;;;;;;;;;2066155;28;20358;-77
2022/03/22 01:20:44;;;;;;;;;;;;;;;;;;2066180;28;19914;-76
2022/03/22 01:21:45;;;;;;;;;;;;;;;;;;2066273;28;19918;-77
2022/03/22 01:22:46;;;;;;;;;;;;;;;;;;2066252;28;19914;-77
2022/03/22 01:23:46;;;;;;;;;;;;;;;;;;2057775;28;19914;-77
2022/03/22 01:24:47;;;;;;;;;;;;;;;;;;2057665;28;19913;-77
2022/03/22 01:25:48;;;;;;;;;;;;;;;;;;2065647;28;20166;-77
2022/03/22 01:26:48;;;;;;;;;;;;;;;;;;2066366;28;20041;-76
2022/03/22 01:27:49;;;;;;;;;;;;;;;;;;2065685;28;20394;-76
2022/03/22 01:28:50;;;;;;;;;;;;;;;;;;2065811;28;19929;-76
2022/03/22 01:29:51;;;;;;;;;;;;;;;;;;2057849;28;19914;-76
2022/03/22 01:30:51;;;;;;;;;;;;;;;;;;2057766;28;19929;-76
2022/03/22 01:31:51;;;;;;;;;;;;;;;;;;2057539;28;19918;-76
2022/03/22 01:32:53;;;;;;;;;;;;;;;;;;2057501;28;19922;-76
2022/03/22 01:33:53;;;;;;;;;;;;;;;;;;2065652;28;19949;-76
2022/03/22 01:34:53;;;;;;;;;;;;;;;;;;2066147;28;19913;-76
2022/03/22 01:35:53;;;;;;;;;;;;;;;;;;2065970;28;20076;-76
2022/03/22 01:36:54;;;;;;;;;;;;;;;;;;2065362;28;20379;-77
2022/03/22 01:37:55;;;;;;;;;;;;;;;;;;2057587;28;19914;-76
2022/03/22 01:38:55;;;;;;;;;;;;;;;;;;2057623;28;19964;-77
2022/03/22 01:39:56;;;;;;;;;;;;;;;;;;2066145;28;20341;-74
2022/03/22 01:40:56;;;;;;;;;;;;;;;;;;2066137;28;19913;-78
2022/03/22 01:41:57;;;;;;;;;;;;;;;;;;2066072;28;19984;-76
2022/03/22 01:43:06;;;;;;;;;;;;;;;;;;2066100;28;19922;-76
2022/03/22 01:44:08;;;;;;;;;;;;;;;;;;2057438;28;20268;-75
2022/03/22 01:45:09;;;;;;;;;;;;;;;;;;2057985;28;19914;-76
2022/03/22 01:46:12;;;;;;;;;;;;;;;;;;2057462;28;20008;-77
2022/03/22 01:47:14;;;;;;;;;;;;;;;;;;2057792;28;19929;-77
2022/03/22 01:48:14;;;;;;;;;;;;;;;;;;2066397;28;20290;-76
2022/03/22 01:49:15;;;;;;;;;;;;;;;;;;2057548;28;19926;-77
2022/03/22 01:50:18;;;;;;;;;;;;;;;;;;2057829;28;19925;-77
2022/03/22 01:51:22;;;;;;;;;;;;;;;;;;2066233;28;19925;-76
2022/03/22 01:52:23;;;;;;;;;;;;;;;;;;2065964;28;19925;-75
2022/03/22 01:53:24;;;;;;;;;;;;;;;;;;2057355;28;19918;-76
2022/03/22 01:54:25;;;;;;;;;;;;;;;;;;2057561;28;19914;-77
2022/03/22 01:55:25;;;;;;;;;;;;;;;;;;2057289;28;19918;-77
2022/03/22 01:56:26;;;;;;;;;;;;;;;;;;2057676;28;19925;-77
2022/03/22 01:57:30;;;;;;;;;;;;;;;;;;2057342;28;19914;-78
2022/03/22 01:58:31;;;;;;;;;;;;;;;;;;2057952;28;19914;-77
2022/03/22 01:59:31;;;;;;;;;;;;;;;;;;2065841;28;20393;-76
2022/03/22 02:00:31;;;;;;;;;;;;;;;;;;2065874;28;19918;-77
2022/03/22 02:05:56;;;;;;;;;;;;;;;;;;2065941;28;19984;-76
2022/03/22 02:06:58;;;;;;;;;;;;;;;;;;2065899;28;20367;-77
2022/03/22 02:07:59;;;;;;;;;;;;;;;;;;2057299;28;19924;-77
2022/03/22 02:08:59;;;;;;;;;;;;;;;;;;2057501;28;20347;-77
2022/03/22 02:10:00;;;;;;;;;;;;;;;;;;2057190;28;19914;-77
2022/03/22 02:11:00;;;;;;;;;;;;;;;;;;2057415;28;19914;-77
2022/03/22 02:12:01;;;;;;;;;;;;;;;;;;2065792;28;19999;-78
2022/03/22 02:13:01;;;;;;;;;;;;;;;;;;2066008;28;19957;-77
2022/03/22 02:14:01;;;;;;;;;;;;;;;;;;2065914;28;19918;-76
2022/03/22 02:15:03;;;;;;;;;;;;;;;;;;2065252;28;20024;-77
2022/03/22 02:16:03;;;;;;;;;;;;;;;;;;2065488;28;19914;-78
2022/03/22 02:17:08;;;;;;;;;;;;;;;;;;2065777;28;19914;-77
2022/03/22 02:18:08;;;;;;;;;;;;;;;;;;2065911;28;19914;-78
2022/03/22 02:19:11;;;;;;;;;;;;;;;;;;2064845;28;19914;-76
2022/03/22 02:20:12;;;;;;;;;;;;;;;;;;2057208;28;20288;-76
2022/03/22 02:21:14;;;;;;;;;;;;;;;;;;2049291;29;19915;-77
2022/03/22 02:22:22;;;;;;;;;;;;;;;;;;2057313;28;19914;-76
2022/03/22 02:23:41;;;;;;;;;;;;;;;;;;2058204;28;19918;-78
2022/03/22 02:24:42;;;;;;;;;;;;;;;;;;2057143;28;19914;-76
2022/03/22 02:25:42;;;;;;;;;;;;;;;;;;2057218;28;19914;-76
2022/03/22 02:26:42;;;;;;;;;;;;;;;;;;2049154;29;19937;-75
2022/03/22 02:27:46;;;;;;;;;;;;;;;;;;2057346;28;19914;-76
2022/03/22 02:28:46;;;;;;;;;;;;;;;;;;2057035;28;19918;-75
2022/03/22 02:29:47;;;;;;;;;;;;;;;;;;2057309;28;20072;-77
2022/03/22 02:30:49;;;;;;;;;;;;;;;;;;2057148;28;20227;-77
2022/03/22 02:31:52;;;;;;;;;;;;;;;;;;2065780;28;19972;-76
2022/03/22 02:32:58;;;;;;;;;;;;;;;;;;2057113;28;19922;-78
2022/03/22 02:33:58;;;;;;;;;;;;;;;;;;2060394;28;19975;-78
2022/03/22 02:34:59;;;;;;;;;;;;;;;;;;2057249;28;20013;-75
2022/03/22 02:35:59;;;;;;;;;;;;;;;;;;2057100;28;20354;-75
2022/03/22 02:36:59;;;;;;;;;;;;;;;;;;2057106;28;19925;-75
2022/03/22 02:38:02;;;;;;;;;;;;;;;;;;2049146;29;19925;-77
2022/03/22 02:39:02;;;;;;;;;;;;;;;;;;2049380;28;19977;-78
2022/03/22 02:40:05;;;;;;;;;;;;;;;;;;2049078;29;20082;-77
2022/03/22 02:41:06;;;;;;;;;;;;;;;;;;2057294;28;19988;-77
2022/03/22 02:42:06;;;;;;;;;;;;;;;;;;2065618;28;19993;-78
2022/03/22 02:43:08;;;;;;;;;;;;;;;;;;2065592;28;20414;-77
2022/03/22 02:44:10;;;;;;;;;;;;;;;;;;2065610;28;19913;-76
2022/03/22 02:45:11;;;;;;;;;;;;;;;;;;2065594;28;19983;-77
2022/03/22 02:46:12;;;;;;;;;;;;;;;;;;2065549;28;19921;-76
2022/03/22 02:47:12;;;;;;;;;;;;;;;;;;2057097;28;20104;-78
2022/03/22 02:48:12;;;;;;;;;;;;;;;;;;2056427;28;19924;-78
2022/03/22 02:49:13;;;;;;;;;;;;;;;;;;2057113;28;19929;-75
2022/03/22 02:50:13;;;;;;;;;;;;;;;;;;2057006;28;20386;-78
2022/03/22 02:51:14;;;;;;;;;;;;;;;;;;2049051;29;20414;-77
2022/03/22 02:52:14;;;;;;;;;;;;;;;;;;2057083;28;20391;-76
2022/03/22 02:53:14;;;;;;;;;;;;;;;;;;2065513;28;20494;-75
2022/03/22 02:54:17;;;;;;;;;;;;;;;;;;2065086;28;19918;-77
2022/03/22 02:55:18;;;;;;;;;;;;;;;;;;2057156;28;20009;-76
2022/03/22 02:56:19;;;;;;;;;;;;;;;;;;2057252;28;20413;-76
2022/03/22 02:57:20;;;;;;;;;;;;;;;;;;2065486;28;20068;-76
2022/03/22 02:58:20;;;;;;;;;;;;;;;;;;2065572;28;20003;-75
2022/03/22 02:59:20;;;;;;;;;;;;;;;;;;2065454;28;19924;-76
2022/03/22 03:00:23;;;;;;;;;;;;;;;;;;2056951;28;19917;-75
2022/03/22 03:01:24;;;;;;;;;;;;;;;;;;2049336;28;19921;-75
2022/03/22 03:02:24;;;;;;;;;;;;;;;;;;2048937;29;19921;-77
2022/03/22 03:03:25;;;;;;;;;;;;;;;;;;2049045;29;19915;-76
2022/03/22 03:04:25;;;;;;;;;;;;;;;;;;2056868;28;20000;-76
2022/03/22 03:05:25;;;;;;;;;;;;;;;;;;2065327;28;19988;-76
2022/03/22 03:06:28;;;;;;;;;;;;;;;;;;2064870;28;20084;-77
2022/03/22 03:07:29;;;;;;;;;;;;;;;;;;2065063;28;19918;-76
2022/03/22 03:08:29;;;;;;;;;;;;;;;;;;2065557;28;19914;-77
2022/03/22 03:09:29;;;;;;;;;;;;;;;;;;2056787;28;20367;-77
2022/03/22 03:10:30;;;;;;;;;;;;;;;;;;2057010;28;19926;-77
2022/03/22 03:11:30;;;;;;;;;;;;;;;;;;2056758;28;19928;-77
2022/03/22 03:12:33;;;;;;;;;;;;;;;;;;2056969;28;19914;-77
2022/03/22 03:14:52;;;;;;;;;;;;;;;;;;2059371;28;20341;-78
2022/03/22 03:15:53;;;;;;;;;;;;;;;;;;2065310;28;19922;-78
2022/03/22 03:16:53;;;;;;;;;;;;;;;;;;2065352;28;19914;-78
2022/03/22 03:17:54;;;;;;;;;;;;;;;;;;2065481;28;19914;-77
2022/03/22 03:18:54;;;;;;;;;;;;;;;;;;2065485;28;19924;-78
2022/03/22 03:19:54;;;;;;;;;;;;;;;;;;2065402;28;19949;-78
2022/03/22 03:20:55;;;;;;;;;;;;;;;;;;2065286;28;20037;-78
2022/03/22 03:21:55;;;;;;;;;;;;;;;;;;2065248;28;19920;-77
2022/03/22 03:23:43;;;;;;;;;;;;;;;;;;2065477;28;19918;-77
2022/03/22 03:24:44;;;;;;;;;;;;;;;;;;2064930;28;20074;-78
2022/03/22 03:25:44;;;;;;;;;;;;;;;;;;2065360;28;19914;-77
2022/03/22 03:26:47;;;;;;;;;;;;;;;;;;2065281;28;19914;-77
2022/03/22 03:27:50;;;;;;;;;;;;;;;;;;2065484;28;19924;-78
2022/03/22 03:28:57;;;;;;;;;;;;;;;;;;2065162;28;20283;-77
2022/03/22 03:29:58;;;;;;;;;;;;;;;;;;2056831;28;19909;-77
2022/03/22 03:31:00;;;;;;;;;;;;;;;;;;2056799;28;19914;-77
2022/03/22 03:32:01;;;;;;;;;;;;;;;;;;2065274;28;20001;-77
2022/03/22 03:33:03;;;;;;;;;;;;;;;;;;2065281;28;19917;-77
2022/03/22 03:34:04;;;;;;;;;;;;;;;;;;2065116;28;20343;-76
2022/03/22 03:35:04;;;;;;;;;;;;;;;;;;2056771;28;19957;-76
2022/03/22 03:36:05;;;;;;;;;;;;;;;;;;2056607;28;20024;-75
2022/03/22 03:37:06;;;;;;;;;;;;;;;;;;2065265;28;19918;-75
2022/03/22 03:38:06;;;;;;;;;;;;;;;;;;2065266;28;19918;-76
2022/03/22 03:39:06;;;;;;;;;;;;;;;;;;2065282;28;19914;-76
2022/03/22 03:40:07;;;;;;;;;;;;;;;;;;2056677;28;20013;-76
2022/03/22 03:42:27;;;;;;;;;;;;;;;;;;2065114;28;19996;-77
2022/03/22 03:43:27;;;;;;;;;;;;;;;;;;2064767;28;19913;-77
2022/03/22 03:47:10;;;;;;;;;;;;;;;;;;2065334;28;19914;-78
2022/03/22 03:48:10;;;;;;;;;;;;;;;;;;2065220;28;20012;-77
2022/03/22 03:49:10;;;;;;;;;;;;;;;;;;2065328;28;19914;-77
2022/03/22 03:50:13;;;;;;;;;;;;;;;;;;2064654;28;20379;-78
2022/03/22 03:51:13;;;;;;;;;;;;;;;;;;2065038;28;19914;-77
2022/03/22 03:52:15;;;;;;;;;;;;;;;;;;2065317;28;19913;-76
2022/03/22 03:53:15;;;;;;;;;;;;;;;;;;2065414;28;19913;-76
2022/03/22 03:54:16;;;;;;;;;;;;;;;;;;2065139;28;20344;-78
2022/03/22 03:55:16;;;;;;;;;;;;;;;;;;2064851;28;19918;-77
2022/03/22 03:56:16;;;;;;;;;;;;;;;;;;2056523;28;20076;-77
2022/03/22 03:57:17;;;;;;;;;;;;;;;;;;2056733;28;20503;-76
2022/03/22 03:58:17;;;;;;;;;;;;;;;;;;2065198;28;19945;-77
2022/03/22 03:59:17;;;;;;;;;;;;;;;;;;2065303;28;19921;-77
2022/03/22 04:00:18;;;;;;;;;;;;;;;;;;2066866;28;19913;-77
2022/03/22 04:01:18;;;;;;;;;;;;;;;;;;2067083;28;19913;-76
2022/03/22 04:02:18;;;;;;;;;;;;;;;;;;2066841;28;19929;-76
2022/03/22 04:03:19;;;;;;;;;;;;;;;;;;2058395;28;19914;-76
2022/03/22 04:04:19;;;;;;;;;;;;;;;;;;2050254;29;19914;-76
2022/03/22 04:05:19;;;;;;;;;;;;;;;;;;2058307;28;20367;-76
2022/03/22 04:06:20;;;;;;;;;;;;;;;;;;2066873;28;19914;-77
2022/03/22 04:07:22;;;;;;;;;;;;;;;;;;2066875;28;19918;-75
2022/03/22 04:08:22;;;;;;;;;;;;;;;;;;2066892;28;20016;-76
2022/03/22 04:09:22;;;;;;;;;;;;;;;;;;2066330;28;19926;-77
2022/03/22 04:10:23;;;;;;;;;;;;;;;;;;2066417;28;19913;-77
2022/03/22 04:11:23;;;;;;;;;;;;;;;;;;2066667;28;20012;-81
2022/03/22 04:12:23;;;;;;;;;;;;;;;;;;2066733;28;20004;-77
2022/03/22 04:13:26;;;;;;;;;;;;;;;;;;2066035;28;19949;-77
2022/03/22 04:14:27;;;;;;;;;;;;;;;;;;2066756;28;20353;-75
2022/03/22 04:15:29;;;;;;;;;;;;;;;;;;2066658;28;19944;-75
2022/03/22 04:16:30;;;;;;;;;;;;;;;;;;2066726;28;19921;-78
2022/03/22 04:17:30;;;;;;;;;;;;;;;;;;2066535;28;19980;-77
2022/03/22 04:18:33;;;;;;;;;;;;;;;;;;2066811;28;19928;-77
2022/03/22 04:19:35;;;;;;;;;;;;;;;;;;2066780;28;19996;-76
2022/03/22 04:20:35;;;;;;;;;;;;;;;;;;2058117;28;19914;-77
2022/03/22 04:21:36;;;;;;;;;;;;;;;;;;2058172;28;20061;-77
2022/03/22 04:22:36;;;;;;;;;;;;;;;;;;2058060;28;19914;-77
2022/03/22 04:23:37;;;;;;;;;;;;;;;;;;2058192;28;19997;-77
2022/03/22 04:24:37;;;;;;;;;;;;;;;;;;2058004;28;19914;-77
2022/03/22 04:25:37;;;;;;;;;;;;;;;;;;2058169;28;20257;-77
2022/03/22 04:26:39;;;;;;;;;;;;;;;;;;2066587;28;19917;-77
2022/03/22 04:32:57;;;;;;;;;;;;;;;;;;2066740;28;20178;-77
2022/03/22 04:33:58;;;;;;;;;;;;;;;;;;2058089;28;19914;-77
2022/03/22 04:34:58;;;;;;;;;;;;;;;;;;2058099;28;19973;-77
2022/03/22 04:35:59;;;;;;;;;;;;;;;;;;2066554;28;20350;-77
2022/03/22 04:37:02;;;;;;;;;;;;;;;;;;2066543;28;19914;-78
2022/03/22 04:38:08;;;;;;;;;;;;;;;;;;2057998;28;19918;-76
2022/03/22 04:39:08;;;;;;;;;;;;;;;;;;2058622;28;20005;-76
2022/03/22 04:40:10;;;;;;;;;;;;;;;;;;2066487;28;19913;-77
2022/03/22 04:41:10;;;;;;;;;;;;;;;;;;2057520;28;19914;-76
2022/03/22 04:42:14;;;;;;;;;;;;;;;;;;2058036;28;20009;-79
2022/03/22 04:43:14;;;;;;;;;;;;;;;;;;2066531;28;19913;-79
2022/03/22 04:44:16;;;;;;;;;;;;;;;;;;2066489;28;19920;-76
2022/03/22 04:45:17;;;;;;;;;;;;;;;;;;2058014;28;20064;-76
2022/03/22 04:46:18;;;;;;;;;;;;;;;;;;2049943;28;19922;-77
2022/03/22 04:47:19;;;;;;;;;;;;;;;;;;2050160;28;19914;-76
2022/03/22 04:48:19;;;;;;;;;;;;;;;;;;2057819;28;19974;-77
2022/03/22 04:49:20;;;;;;;;;;;;;;;;;;2066464;28;19918;-77
2022/03/22 04:50:20;;;;;;;;;;;;;;;;;;2066446;28;20339;-77
2022/03/22 04:57:45;;;;;;;;;;;;;;;;;;2066323;28;20374;-78
2022/03/22 04:58:48;;;;;;;;;;;;;;;;;;2057606;28;20379;-77
2022/03/22 04:59:49;;;;;;;;;;;;;;;;;;2058239;28;20055;-78
2022/03/22 05:00:49;;;;;;;;;;;;;;;;;;2057762;28;20324;-77
2022/03/22 05:01:50;;;;;;;;;;;;;;;;;;2057774;28;20012;-77
2022/03/22 05:02:52;;;;;;;;;;;;;;;;;;2066441;28;19913;-76
2022/03/22 05:03:52;;;;;;;;;;;;;;;;;;2066318;28;20279;-77
2022/03/22 05:04:53;;;;;;;;;;;;;;;;;;2066246;28;19918;-76
2022/03/22 05:07:12;;;;;;;;;;;;;;;;;;2066004;28;19922;-77
2022/03/22 05:08:12;;;;;;;;;;;;;;;;;;2066426;28;20404;-76
2022/03/22 05:09:13;;;;;;;;;;;;;;;;;;2066284;28;19917;-77
2022/03/22 05:10:13;;;;;;;;;;;;;;;;;;2066304;28;20302;-77
2022/03/22 05:11:13;;;;;;;;;;;;;;;;;;2065642;28;20004;-76
2022/03/22 05:12:13;;;;;;;;;;;;;;;;;;2066133;28;19913;-76
2022/03/22 05:13:14;;;;;;;;;;;;;;;;;;2066134;28;19920;-77
2022/03/22 05:14:14;;;;;;;;;;;;;;;;;;2057596;28;19922;-76
2022/03/22 05:15:15;;;;;;;;;;;;;;;;;;2057764;28;20294;-76
2022/03/22 05:16:15;;;;;;;;;;;;;;;;;;2066165;28;19913;-76
2022/03/22 05:17:21;;;;;;;;;;;;;;;;;;2065680;28;20378;-77
2022/03/22 05:18:21;;;;;;;;;;;;;;;;;;2057747;28;19977;-77
2022/03/22 05:19:21;;;;;;;;;;;;;;;;;;2049726;29;19919;-77
2022/03/22 05:20:22;;;;;;;;;;;;;;;;;;2057853;28;20008;-78
2022/03/22 05:21:24;;;;;;;;;;;;;;;;;;2057640;28;19918;-77
2022/03/22 05:22:24;;;;;;;;;;;;;;;;;;2057942;28;20363;-78
2022/03/22 05:23:24;;;;;;;;;;;;;;;;;;2066301;28;19914;-75
2022/03/22 05:24:25;;;;;;;;;;;;;;;;;;2065629;28;19913;-75
2022/03/22 05:25:31;;;;;;;;;;;;;;;;;;2065759;28;19924;-76
2022/03/22 05:26:31;;;;;;;;;;;;;;;;;;2066792;28;19914;-76
2022/03/22 05:27:31;;;;;;;;;;;;;;;;;;2057646;28;20311;-76
2022/03/22 05:28:33;;;;;;;;;;;;;;;;;;2057686;28;19934;-76
2022/03/22 05:29:33;;;;;;;;;;;;;;;;;;2066378;28;19964;-76
2022/03/22 05:30:33;;;;;;;;;;;;;;;;;;2066232;28;19961;-76
2022/03/22 05:31:34;;;;;;;;;;;;;;;;;;2065577;28;19914;-76
2022/03/22 05:32:34;;;;;;;;;;;;;;;;;;2065629;28;19914;-75
2022/03/22 05:33:37;;;;;;;;;;;;;;;;;;2066252;28;20302;-76
2022/03/22 05:34:37;;;;;;;;;;;;;;;;;;2066097;28;19913;-76
2022/03/22 05:35:38;;;;;;;;;;;;;;;;;;2066137;28;19922;-76
2022/03/22 05:36:40;;;;;;;;;;;;;;;;;;2065995;28;19995;-77
2022/03/22 05:37:41;;;;;;;;;;;;;;;;;;2066337;28;20153;-77
2022/03/22 05:38:41;;;;;;;;;;;;;;;;;;2066061;28;19988;-76
2022/03/22 05:39:49;;;;;;;;;;;;;;;;;;2057498;28;19968;-78
2022/03/22 05:40:49;;;;;;;;;;;;;;;;;;2050510;28;19915;-78
2022/03/22 05:41:51;;;;;;;;;;;;;;;;;;2057680;28;19915;-77
2022/03/22 05:42:54;;;;;;;;;;;;;;;;;;2066093;28;19957;-75
2022/03/22 05:44:00;;;;;;;;;;;;;;;;;;2066106;28;20060;-78
2022/03/22 05:45:00;;;;;;;;;;;;;;;;;;2066008;28;19918;-79
2022/03/22 05:46:01;;;;;;;;;;;;;;;;;;2066124;28;20299;-78
2022/03/22 05:47:07;;;;;;;;;;;;;;;;;;2066033;28;19984;-77
2022/03/22 05:48:10;;;;;;;;;;;;;;;;;;2068659;28;19913;-80
2022/03/22 05:49:11;;;;;;;;;;;;;;;;;;2066045;28;19914;-77
2022/03/22 05:50:11;;;;;;;;;;;;;;;;;;2057501;28;19915;-77
2022/03/22 05:51:14;;;;;;;;;;;;;;;;;;2049469;29;19922;-78
2022/03/22 05:52:14;;;;;;;;;;;;;;;;;;2057797;28;20028;-77
2022/03/22 05:53:14;;;;;;;;;;;;;;;;;;2065413;28;19918;-78
2022/03/22 05:54:14;;;;;;;;;;;;;;;;;;2057341;28;19918;-76
2022/03/22 05:55:18;;;;;;;;;;;;;;;;;;2057501;28;20008;-77
2022/03/22 05:56:18;;;;;;;;;;;;;;;;;;2065839;28;20282;-77
2022/03/22 06:08:19;;;;;;;;;;;;;;;;;;2024479;29;19919;-76
2022/03/22 06:09:56;;;;;;;;;;;;;;;;;;;;;
2022/03/22 06:17:03;;;;;;;;;;;;;;;;;;;;;
2022/03/22 06:18:39;;;;;;;;;;;;;;;;;;;;;
2022/03/22 06:23:48;;;;;;;;;;;;;;;;;;;;;
2022/03/22 06:31:53;;;;;;;;;;;;;;;;;;2013385;29;20427;-75
2022/03/22 06:33:07;;;;;;;;;;;;;;;;;;2017449;29;19927;-78
2022/03/22 06:34:08;;;;;;;;;;;;;;;;;;2017595;29;20006;-78
2022/03/22 06:35:21;;;;;;;;;;;;;;;;;;;;;
2022/03/22 06:36:40;;;;;;;;;;;;;;;;;;2052099;28;19952;-75
2022/03/22 06:37:46;;;;;;;;;;;;;;;;;;2065576;28;19985;-78
2022/03/22 06:39:06;;;;;;;;;;;;;;;;;;2065780;28;20020;-77
2022/03/22 06:40:40;;;;;;;;;;;;;;;;;;;;;
2022/03/22 06:41:43;;;;;;;;;;;;;;;;;;2061628;28;19933;-77
2022/03/22 06:42:46;;;;;;;;;;;;;;;;;;2057103;28;19985;-77
2022/03/22 06:44:12;;;;;;;;;;;;;;;;;;2057550;28;19925;-77
2022/03/22 06:45:13;;;;;;;;;;;;;;;;;;2065663;28;19917;-77
2022/03/22 06:46:26;;;;;;;;;;;;;;;;;;2056808;28;19925;-77
2022/03/22 06:47:37;;;;;;;;;;;;;;;;;;2060760;28;19913;-76
2022/03/22 06:48:37;;;;;;;;;;;;;;;;;;2065651;28;19909;-76
2022/03/22 06:49:38;;;;;;;;;;;;;;;;;;2065510;28;19972;-76
2022/03/22 06:50:38;;;;;;;;;;;;;;;;;;2065610;28;20181;-75
2022/03/22 06:51:42;;;;;;;;;;;;;;;;;;2055691;28;20009;-78
2022/03/22 06:52:56;;;;;;;;;;;;;;;;;;2056892;28;19977;-76
2022/03/22 06:55:36;;;;;;;;;;;;;;;;;;2065693;28;19914;-77
2022/03/22 06:56:46;;;;;;;;;;;;;;;;;;2065680;28;19976;-76
2022/03/22 06:58:05;;;;;;;;;;;;;;;;;;;;;
2022/03/22 06:59:07;;;;;;;;;;;;;;;;;;2063433;28;19914;-76
2022/03/22 07:00:11;;;;;;;;;;;;;;;;;;2065390;28;19913;-77
2022/03/22 07:01:22;;;;;;;;;;;;;;;;;;;;;
2022/03/22 07:02:25;;;;;;;;;;;;;;;;;;2058473;28;19914;-77
2022/03/22 07:03:32;;;;;;;;;;;;;;;;;;2056929;28;19914;-78
2022/03/22 07:04:33;;;;;;;;;;;;;;;;;;2058849;28;20372;-77
2022/03/22 07:05:42;;;;;;;;;;;;;;;;;;2065405;28;19914;-78
2022/03/22 07:06:47;;;;;;;;;;;;;;;;;;2066197;28;19914;-77
2022/03/22 07:07:48;;;;;;;;;;;;;;;;;;2056961;28;19914;-77
2022/03/22 07:08:53;;;;;;;;;;;;;;;;;;2057015;28;19985;-78
2022/03/22 07:09:53;;;;;;;;;;;;;;;;;;2065360;28;19929;-77
2022/03/22 07:13:53;;;;;;;;;;;;;;;;;;2058194;28;19922;-77
2022/03/22 07:15:26;;;;;;;;;;;;;;;;;;;;;
2022/03/22 07:17:47;;;;;;;;;;;;;;;;;;2065340;28;19913;-76
2022/03/22 07:18:55;;;;;;;;;;;;;;;;;;2065292;28;19960;-77
2022/03/22 07:19:58;;;;;;;;;;;;;;;;;;2056860;28;19914;-76
2022/03/22 07:21:04;;;;;;;;;;;;;;;;;;2056625;28;20398;-77
2022/03/22 07:22:12;;;;;;;;;;;;;;;;;;2056895;28;19925;-77
2022/03/22 07:23:38;;;;;;;;;;;;;;;;;;2056821;28;19926;-76
2022/03/22 07:25:01;;;;;;;;;;;;;;;;;;2056886;28;19918;-76
2022/03/22 07:26:06;;;;;;;;;;;;;;;;;;2051820;28;19953;-76
2022/03/22 07:27:14;;;;;;;;;;;;;;;;;;2057309;28;20000;-77
2022/03/22 07:28:22;;;;;;;;;;;;;;;;;;2065381;28;19913;-78
2022/03/22 07:29:52;;;;;;;;;;;;;;;;;;;;;
2022/03/22 07:30:56;;;;;;;;;;;;;;;;;;2065276;28;19992;-76
2022/03/22 07:32:14;;;;;;;;;;;;;;;;;;2065284;28;19986;-78
2022/03/22 07:33:20;;;;;;;;;;;;;;;;;;2065376;28;19921;-77
2022/03/22 07:34:23;;;;;;;;;;;;;;;;;;2056417;28;19914;-78
2022/03/22 07:35:26;;;;;;;;;;;;;;;;;;2059503;28;19930;-77
2022/03/22 07:36:29;;;;;;;;;;;;;;;;;;2065425;28;20603;-77
2022/03/22 07:37:31;;;;;;;;;;;;;;;;;;2056607;28;20005;-78
2022/03/22 07:38:42;;;;;;;;;;;;;;;;;;2057034;28;19914;-77
2022/03/22 07:39:56;;;;;;;;;;;;;;;;;;;;;
2022/03/22 07:41:14;;;;;;;;;;;;;;;;;;2058523;28;20280;-78
2022/03/22 07:42:24;;;;;;;;;;;;;;;;;;2065278;28;19914;-78
2022/03/22 07:43:29;;;;;;;;;;;;;;;;;;2065236;28;19914;-77
2022/03/22 07:44:32;;;;;;;;;;;;;;;;;;2056694;28;19973;-76
2022/03/22 07:45:40;;;;;;;;;;;;;;;;;;2048807;28;19962;-78
2022/03/22 07:46:48;;;;;;;;;;;;;;;;;;2057867;28;19959;-78
2022/03/22 07:47:58;;;;;;;;;;;;;;;;;;;;;
2022/03/22 07:53:18;;;;;;;;;;;;;;;;;;2065334;28;20310;-83
2022/03/22 07:54:21;;;;;;;;;;;;;;;;;;2056666;28;19914;-77
2022/03/22 07:55:24;;;;;;;;;;;;;;;;;;2048981;28;20006;-78
2022/03/22 07:56:35;;;;;;;;;;;;;;;;;;2049000;28;19914;-83
2022/03/22 07:57:38;;;;;;;;;;;;;;;;;;2061003;28;19957;-78
2022/03/22 07:58:39;;;;;;;;;;;;;;;;;;2065090;28;19925;-76
2022/03/22 07:59:39;;;;;;;;;;;;;;;;;;2064437;28;20369;-76
2022/03/22 08:00:42;;;;;;;;;;;;;;;;;;2064551;28;19918;-77
2022/03/22 08:01:43;;;;;;;;;;;;;;;;;;2065149;28;19924;-80
2022/03/22 08:02:55;;;;;;;;;;;;;;;;;;2065134;28;20286;-76
2022/03/22 08:03:56;;;;;;;;;;;;;;;;;;2065233;28;20264;-77
2022/03/22 08:05:09;;;;;;;;;;;;;;;;;;;;;
2022/03/22 08:06:15;;;;;;;;;;;;;;;;;;2064742;28;20351;-78
2022/03/22 08:07:20;;;;;;;;;;;;;;;;;;2066194;28;19914;-78
2022/03/22 08:08:31;;;;;;;;;;;;;;;;;;;;;
2022/03/22 08:10:00;;;;;;;;;;;;;;;;;;2057910;28;20348;-78
2022/03/22 08:11:24;;;;;;;;;;;;;;;;;;;;;
2022/03/22 08:12:32;;;;;;;;;;;;;;;;;;2059935;28;19921;-80
2022/03/22 08:13:53;;;;;;;;;;;;;;;;;;2065115;28;19913;-77
2022/03/22 08:15:04;;;;;;;;;;;;;;;;;;2066184;28;19924;-80
2022/03/22 08:16:05;;;;;;;;;;;;;;;;;;2065238;28;19925;-78